sensor_id;sensor_type;location;lat;lon;timestamp;pressure;altitude;pressure_sealevel;temperature;humidity
7075;BME280;3578;51.568;6.932;2023-10-09T00:01:51;52901.38;;;-144.14;100.00
7075;BME280;3578;51.568;6.932;2023-10-09T00:04:19;52925.44;;;-144.14;100.00
7075;BME280;3578;51.568;6.932;2023-10-09T00:06:47;52913.41;;;-144.14;100.00
7075;BME280;3578;51.568;6.932;2023-10-09T00:09:14;52909.41;;;-144.14;100.00
7075;BME280;3578;51.568;6.932;2023-10-09T00:11:59;52913.41;;;-144.14;100.00
7075;BME280;3578;51.568;6.932;2023-10-09T00:14:29;52929.44;;;-144.14;100.00
7075;BME280;3578;51.568;6.932;2023-10-09T00:16:59;52997.56;;;-144.14;100.00
7075;BME280;3578;51.568;6.932;2023-10-09T00:19:43;53085.75;;;-144.14;100.00
7075;BME280;3578;51.568;6.932;2023-10-09T00:22:12;53093.75;;;-144.14;100.00
7075;BME280;3578;51.568;6.932;2023-10-09T00:24:52;53133.84;;;-144.14;100.00
7075;BME280;3578;51.568;6.932;2023-10-09T00:27:38;53157.88;;;-144.14;100.00
7075;BME280;3578;51.568;6.932;2023-10-09T00:30:10;53151.88;;;-144.14;100.00
7075;BME280;3578;51.568;6.932;2023-10-09T00:32:41;53282.13;;;-144.14;100.00
7075;BME280;3578;51.568;6.932;2023-10-09T00:35:10;53264.09;;;-144.14;100.00
7075;BME280;3578;51.568;6.932;2023-10-09T00:37:51;53288.16;;;-144.14;100.00
7075;BME280;3578;51.568;6.932;2023-10-09T00:40:30;53274.13;;;-144.14;100.00
7075;BME280;3578;51.568;6.932;2023-10-09T00:43:02;53262.09;;;-144.14;100.00
7075;BME280;3578;51.568;6.932;2023-10-09T00:45:32;53260.09;;;-144.14;100.00
7075;BME280;3578;51.568;6.932;2023-10-09T00:48:05;53270.13;;;-144.14;100.00
7075;BME280;3578;51.568;6.932;2023-10-09T00:50:34;53212.00;;;-144.14;100.00
7075;BME280;3578;51.568;6.932;2023-10-09T00:53:05;53107.78;;;-144.14;100.00
7075;BME280;3578;51.568;6.932;2023-10-09T00:55:38;53161.91;;;-144.14;100.00
7075;BME280;3578;51.568;6.932;2023-10-09T00:58:13;53161.91;;;-144.14;100.00
7075;BME280;3578;51.568;6.932;2023-10-09T01:00:41;53292.16;;;-144.14;100.00
7075;BME280;3578;51.568;6.932;2023-10-09T01:03:19;53153.88;;;-144.14;100.00
7075;BME280;3578;51.568;6.932;2023-10-09T01:05:51;53177.94;;;-144.14;100.00
7075;BME280;3578;51.568;6.932;2023-10-09T01:08:18;53306.19;;;-144.14;100.00
7075;BME280;3578;51.568;6.932;2023-10-09T01:10:52;53266.09;;;-144.14;100.00
7075;BME280;3578;51.568;6.932;2023-10-09T01:13:23;53238.03;;;-144.14;100.00
7075;BME280;3578;51.568;6.932;2023-10-09T01:16:06;53304.19;;;-144.14;100.00
7075;BME280;3578;51.568;6.932;2023-10-09T01:18:38;53394.38;;;-144.14;100.00
7075;BME280;3578;51.568;6.932;2023-10-09T01:21:09;53454.50;;;-144.14;100.00
7075;BME280;3578;51.568;6.932;2023-10-09T01:23:40;53466.53;;;-144.14;100.00
7075;BME280;3578;51.568;6.932;2023-10-09T01:26:24;53452.50;;;-144.14;100.00
7075;BME280;3578;51.568;6.932;2023-10-09T01:28:51;53518.63;;;-144.14;100.00
7075;BME280;3578;51.568;6.932;2023-10-09T01:31:23;53518.63;;;-144.14;100.00
7075;BME280;3578;51.568;6.932;2023-10-09T01:33:52;53578.75;;;-144.14;100.00
7075;BME280;3578;51.568;6.932;2023-10-09T01:36:25;53598.81;;;-144.14;100.00
7075;BME280;3578;51.568;6.932;2023-10-09T01:39:00;53550.69;;;-144.14;100.00
7075;BME280;3578;51.568;6.932;2023-10-09T01:41:32;53610.81;;;-144.14;100.00
7075;BME280;3578;51.568;6.932;2023-10-09T01:43:59;53612.84;;;-144.14;100.00
7075;BME280;3578;51.568;6.932;2023-10-09T01:46:28;53506.59;;;-144.14;100.00
7075;BME280;3578;51.568;6.932;2023-10-09T01:48:59;53482.56;;;-144.14;100.00
7075;BME280;3578;51.568;6.932;2023-10-09T01:51:33;53578.75;;;-144.14;100.00
7075;BME280;3578;51.568;6.932;2023-10-09T01:54:03;53542.69;;;-144.14;100.00
7075;BME280;3578;51.568;6.932;2023-10-09T01:56:30;53630.88;;;-144.14;100.00
7075;BME280;3578;51.568;6.932;2023-10-09T01:59:02;53697.00;;;-144.14;100.00
7075;BME280;3578;51.568;6.932;2023-10-09T02:01:31;53687.00;;;-144.14;100.00
7075;BME280;3578;51.568;6.932;2023-10-09T02:03:59;53743.13;;;-144.14;100.00
7075;BME280;3578;51.568;6.932;2023-10-09T02:06:32;53775.19;;;-144.14;100.00
7075;BME280;3578;51.568;6.932;2023-10-09T02:09:04;53803.25;;;-144.14;100.00
7075;BME280;3578;51.568;6.932;2023-10-09T02:11:32;53817.28;;;-144.14;100.00
7075;BME280;3578;51.568;6.932;2023-10-09T02:14:11;53751.13;;;-144.14;100.00
7075;BME280;3578;51.568;6.932;2023-10-09T02:16:47;53875.41;;;-144.14;100.00
7075;BME280;3578;51.568;6.932;2023-10-09T02:19:41;53941.56;;;-144.14;100.00
7075;BME280;3578;51.568;6.932;2023-10-09T02:22:08;53969.63;;;-144.14;100.00
7075;BME280;3578;51.568;6.932;2023-10-09T02:24:40;53975.63;;;-144.14;100.00
7075;BME280;3578;51.568;6.932;2023-10-09T02:27:23;53729.09;;;-144.14;100.00
7075;BME280;3578;51.568;6.932;2023-10-09T02:30:11;53781.19;;;-144.14;100.00
7075;BME280;3578;51.568;6.932;2023-10-09T02:33:05;53785.22;;;-144.14;100.00
7075;BME280;3578;51.568;6.932;2023-10-09T02:35:34;53879.41;;;-144.14;100.00
7075;BME280;3578;51.568;6.932;2023-10-09T02:38:05;54103.91;;;-144.14;100.00
7075;BME280;3578;51.568;6.932;2023-10-09T02:40:34;54176.09;;;-144.14;100.00
7075;BME280;3578;51.568;6.932;2023-10-09T02:43:07;54059.81;;;-144.14;100.00
7075;BME280;3578;51.568;6.932;2023-10-09T02:45:43;54087.88;;;-144.14;100.00
7075;BME280;3578;51.568;6.932;2023-10-09T02:48:18;54039.78;;;-144.14;100.00
7075;BME280;3578;51.568;6.932;2023-10-09T02:50:46;53963.59;;;-144.14;100.00
7075;BME280;3578;51.568;6.932;2023-10-09T02:53:16;53907.47;;;-144.14;100.00
7075;BME280;3578;51.568;6.932;2023-10-09T02:55:45;53787.22;;;-144.14;100.00
7075;BME280;3578;51.568;6.932;2023-10-09T02:58:29;53835.31;;;-144.14;100.00
7075;BME280;3578;51.568;6.932;2023-10-09T03:00:58;53843.34;;;-144.14;100.00
7075;BME280;3578;51.568;6.932;2023-10-09T03:03:26;53859.38;;;-144.14;100.00
7075;BME280;3578;51.568;6.932;2023-10-09T03:05:53;53821.28;;;-144.14;100.00
7075;BME280;3578;51.568;6.932;2023-10-09T03:08:20;53813.28;;;-144.14;100.00
7075;BME280;3578;51.568;6.932;2023-10-09T03:10:47;53799.25;;;-144.14;100.00
7075;BME280;3578;51.568;6.932;2023-10-09T03:13:14;53859.38;;;-144.14;100.00
7075;BME280;3578;51.568;6.932;2023-10-09T03:15:46;53853.34;;;-144.14;100.00
7075;BME280;3578;51.568;6.932;2023-10-09T03:18:14;53911.50;;;-144.14;100.00
7075;BME280;3578;51.568;6.932;2023-10-09T03:20:42;53925.53;;;-144.14;100.00
7075;BME280;3578;51.568;6.932;2023-10-09T03:23:10;53885.44;;;-144.14;100.00
7075;BME280;3578;51.568;6.932;2023-10-09T03:25:40;53899.47;;;-144.14;100.00
7075;BME280;3578;51.568;6.932;2023-10-09T03:28:11;53883.44;;;-144.14;100.00
7075;BME280;3578;51.568;6.932;2023-10-09T03:30:41;53925.53;;;-144.14;100.00
7075;BME280;3578;51.568;6.932;2023-10-09T03:33:13;53895.44;;;-144.14;100.00
7075;BME280;3578;51.568;6.932;2023-10-09T03:35:42;53915.50;;;-144.14;100.00
7075;BME280;3578;51.568;6.932;2023-10-09T03:38:09;53905.47;;;-144.14;100.00
7075;BME280;3578;51.568;6.932;2023-10-09T03:40:43;53887.44;;;-144.14;100.00
7075;BME280;3578;51.568;6.932;2023-10-09T03:43:10;53749.13;;;-144.14;100.00
7075;BME280;3578;51.568;6.932;2023-10-09T03:45:37;53701.03;;;-144.14;100.00
7075;BME280;3578;51.568;6.932;2023-10-09T03:48:11;53640.88;;;-144.14;100.00
7075;BME280;3578;51.568;6.932;2023-10-09T03:50:48;53578.75;;;-144.14;100.00
7075;BME280;3578;51.568;6.932;2023-10-09T03:53:21;53522.63;;;-144.14;100.00
7075;BME280;3578;51.568;6.932;2023-10-09T03:55:48;53462.50;;;-144.14;100.00
7075;BME280;3578;51.568;6.932;2023-10-09T03:58:15;53432.44;;;-144.14;100.00
7075;BME280;3578;51.568;6.932;2023-10-09T04:00:44;53392.38;;;-144.14;100.00
7075;BME280;3578;51.568;6.932;2023-10-09T04:03:12;53406.41;;;-144.14;100.00
7075;BME280;3578;51.568;6.932;2023-10-09T04:05:40;53434.44;;;-144.14;100.00
7075;BME280;3578;51.568;6.932;2023-10-09T04:08:10;53532.66;;;-144.14;100.00
7075;BME280;3578;51.568;6.932;2023-10-09T04:10:45;53520.63;;;-144.14;100.00
7075;BME280;3578;51.568;6.932;2023-10-09T04:13:19;53546.69;;;-144.14;100.00
7075;BME280;3578;51.568;6.932;2023-10-09T04:15:50;53530.66;;;-144.14;100.00
7075;BME280;3578;51.568;6.932;2023-10-09T04:18:20;53510.63;;;-144.14;100.00
7075;BME280;3578;51.568;6.932;2023-10-09T04:20:55;53528.66;;;-144.14;100.00
7075;BME280;3578;51.568;6.932;2023-10-09T04:23:40;53534.66;;;-144.14;100.00
7075;BME280;3578;51.568;6.932;2023-10-09T04:26:25;53538.69;;;-144.14;100.00
7075;BME280;3578;51.568;6.932;2023-10-09T04:28:52;53542.69;;;-144.14;100.00
7075;BME280;3578;51.568;6.932;2023-10-09T04:31:20;53538.69;;;-144.14;100.00
7075;BME280;3578;51.568;6.932;2023-10-09T04:33:50;53626.88;;;-144.14;100.00
7075;BME280;3578;51.568;6.932;2023-10-09T04:36:45;53582.78;;;-144.14;100.00
7075;BME280;3578;51.568;6.932;2023-10-09T04:39:18;53598.81;;;-144.14;100.00
7075;BME280;3578;51.568;6.932;2023-10-09T04:42:03;53646.91;;;-144.14;100.00
7075;BME280;3578;51.568;6.932;2023-10-09T04:44:52;53604.81;;;-144.14;100.00
7075;BME280;3578;51.568;6.932;2023-10-09T04:47:37;53670.97;;;-144.14;100.00
7075;BME280;3578;51.568;6.932;2023-10-09T04:50:05;53699.03;;;-144.14;100.00
7075;BME280;3578;51.568;6.932;2023-10-09T04:52:37;53640.88;;;-144.14;100.00
7075;BME280;3578;51.568;6.932;2023-10-09T04:55:19;53600.81;;;-144.14;100.00
7075;BME280;3578;51.568;6.932;2023-10-09T04:57:51;53456.50;;;-144.14;100.00
7075;BME280;3578;51.568;6.932;2023-10-09T05:00:28;53440.47;;;-144.14;100.00
7075;BME280;3578;51.568;6.932;2023-10-09T05:03:27;53394.38;;;-144.14;100.00
7075;BME280;3578;51.568;6.932;2023-10-09T05:05:55;53348.28;;;-144.14;100.00
7075;BME280;3578;51.568;6.932;2023-10-09T05:08:25;53326.22;;;-144.14;100.00
7075;BME280;3578;51.568;6.932;2023-10-09T05:10:58;53298.16;;;-144.14;100.00
7075;BME280;3578;51.568;6.932;2023-10-09T05:13:41;53210.00;;;-144.14;100.00
7075;BME280;3578;51.568;6.932;2023-10-09T05:16:23;53193.97;;;-144.14;100.00
7075;BME280;3578;51.568;6.932;2023-10-09T05:18:53;53208.00;;;-144.14;100.00
7075;BME280;3578;51.568;6.932;2023-10-09T05:21:22;53197.97;;;-144.14;100.00
7075;BME280;3578;51.568;6.932;2023-10-09T05:24:02;53109.78;;;-144.14;100.00
7075;BME280;3578;51.568;6.932;2023-10-09T05:26:48;53073.72;;;-144.14;100.00
7075;BME280;3578;51.568;6.932;2023-10-09T05:29:20;53023.63;;;-144.14;100.00
7075;BME280;3578;51.568;6.932;2023-10-09T05:32:00;52985.53;;;-144.14;100.00
7075;BME280;3578;51.568;6.932;2023-10-09T05:34:31;52963.50;;;-144.14;100.00
7075;BME280;3578;51.568;6.932;2023-10-09T05:37:00;52933.44;;;-144.14;100.00
7075;BME280;3578;51.568;6.932;2023-10-09T05:39:43;52971.50;;;-144.14;100.00
7075;BME280;3578;51.568;6.932;2023-10-09T05:42:25;52995.56;;;-144.14;100.00
7075;BME280;3578;51.568;6.932;2023-10-09T05:44:55;53017.59;;;-144.14;100.00
7075;BME280;3578;51.568;6.932;2023-10-09T05:47:41;52975.53;;;-144.14;100.00
7075;BME280;3578;51.568;6.932;2023-10-09T05:50:13;52985.53;;;-144.14;100.00
7075;BME280;3578;51.568;6.932;2023-10-09T05:52:56;52959.50;;;-144.14;100.00
7075;BME280;3578;51.568;6.932;2023-10-09T05:55:35;52959.50;;;-144.14;100.00
7075;BME280;3578;51.568;6.932;2023-10-09T05:58:21;52955.47;;;-144.14;100.00
7075;BME280;3578;51.568;6.932;2023-10-09T06:01:05;52981.53;;;-144.14;100.00
7075;BME280;3578;51.568;6.932;2023-10-09T06:03:52;53005.59;;;-144.14;100.00
7075;BME280;3578;51.568;6.932;2023-10-09T06:06:30;52947.47;;;-144.14;100.00
7075;BME280;3578;51.568;6.932;2023-10-09T06:09:01;52943.47;;;-144.14;100.00
7075;BME280;3578;51.568;6.932;2023-10-09T06:11:51;53041.66;;;-144.14;100.00
7075;BME280;3578;51.568;6.932;2023-10-09T06:14:43;53009.59;;;-144.14;100.00
7075;BME280;3578;51.568;6.932;2023-10-09T06:17:15;52981.53;;;-144.14;100.00
7075;BME280;3578;51.568;6.932;2023-10-09T06:19:50;53013.59;;;-144.14;100.00
7075;BME280;3578;51.568;6.932;2023-10-09T06:22:24;52949.47;;;-144.14;100.00
7075;BME280;3578;51.568;6.932;2023-10-09T06:25:11;52965.50;;;-144.14;100.00
7075;BME280;3578;51.568;6.932;2023-10-09T06:27:44;52901.38;;;-144.14;100.00
7075;BME280;3578;51.568;6.932;2023-10-09T06:30:29;52953.47;;;-144.14;100.00
7075;BME280;3578;51.568;6.932;2023-10-09T06:33:00;52981.53;;;-144.14;100.00
7075;BME280;3578;51.568;6.932;2023-10-09T06:35:46;52929.44;;;-144.14;100.00
7075;BME280;3578;51.568;6.932;2023-10-09T06:38:20;53025.63;;;-144.14;100.00
7075;BME280;3578;51.568;6.932;2023-10-09T06:40:59;52999.56;;;-144.14;100.00
7075;BME280;3578;51.568;6.932;2023-10-09T06:43:48;52981.53;;;-144.14;100.00
7075;BME280;3578;51.568;6.932;2023-10-09T06:46:20;52867.31;;;-144.14;100.00
7075;BME280;3578;51.568;6.932;2023-10-09T06:49:10;52869.31;;;-144.14;100.00
7075;BME280;3578;51.568;6.932;2023-10-09T06:51:55;52857.28;;;-144.14;100.00
7075;BME280;3578;51.568;6.932;2023-10-09T06:54:41;52817.22;;;-144.14;100.00
7075;BME280;3578;51.568;6.932;2023-10-09T06:57:17;52813.22;;;-144.14;100.00
7075;BME280;3578;51.568;6.932;2023-10-09T07:00:06;52817.22;;;-144.14;100.00
7075;BME280;3578;51.568;6.932;2023-10-09T07:02:57;52805.19;;;-144.14;100.00
7075;BME280;3578;51.568;6.932;2023-10-09T07:05:37;52841.25;;;-144.14;100.00
7075;BME280;3578;51.568;6.932;2023-10-09T07:08:23;52809.19;;;-144.14;100.00
7075;BME280;3578;51.568;6.932;2023-10-09T07:11:02;52841.25;;;-144.14;100.00
7075;BME280;3578;51.568;6.932;2023-10-09T07:13:43;52849.28;;;-144.14;100.00
7075;BME280;3578;51.568;6.932;2023-10-09T07:16:20;52849.28;;;-144.14;100.00
7075;BME280;3578;51.568;6.932;2023-10-09T07:18:51;52861.31;;;-144.14;100.00
7075;BME280;3578;51.568;6.932;2023-10-09T07:21:20;52819.22;;;-144.14;100.00
7075;BME280;3578;51.568;6.932;2023-10-09T07:23:55;52801.19;;;-144.14;100.00
7075;BME280;3578;51.568;6.932;2023-10-09T07:26:24;52799.19;;;-144.14;100.00
7075;BME280;3578;51.568;6.932;2023-10-09T07:29:03;52769.13;;;-144.14;100.00
7075;BME280;3578;51.568;6.932;2023-10-09T07:31:49;52767.13;;;-144.14;100.00
7075;BME280;3578;51.568;6.932;2023-10-09T07:34:24;52773.13;;;-144.14;100.00
7075;BME280;3578;51.568;6.932;2023-10-09T07:36:58;52763.13;;;-144.14;100.00
7075;BME280;3578;51.568;6.932;2023-10-09T07:39:31;52771.13;;;-144.14;100.00
7075;BME280;3578;51.568;6.932;2023-10-09T07:42:04;52741.06;;;-144.14;100.00
7075;BME280;3578;51.568;6.932;2023-10-09T07:44:45;52781.16;;;-144.14;100.00
7075;BME280;3578;51.568;6.932;2023-10-09T07:47:19;52807.19;;;-144.14;100.00
7075;BME280;3578;51.568;6.932;2023-10-09T07:50:01;52765.13;;;-144.14;100.00
7075;BME280;3578;51.568;6.932;2023-10-09T07:52:28;52765.13;;;-144.14;100.00
7075;BME280;3578;51.568;6.932;2023-10-09T07:54:55;52777.13;;;-144.14;100.00
7075;BME280;3578;51.568;6.932;2023-10-09T07:57:28;52751.09;;;-144.14;100.00
7075;BME280;3578;51.568;6.932;2023-10-09T08:00:06;52791.16;;;-144.14;100.00
7075;BME280;3578;51.568;6.932;2023-10-09T08:02:53;52759.09;;;-144.14;100.00
7075;BME280;3578;51.568;6.932;2023-10-09T08:05:27;52805.19;;;-144.14;100.00
7075;BME280;3578;51.568;6.932;2023-10-09T08:08:00;52789.16;;;-144.14;100.00
7075;BME280;3578;51.568;6.932;2023-10-09T08:10:51;52789.16;;;-144.14;100.00
7075;BME280;3578;51.568;6.932;2023-10-09T08:13:36;52773.13;;;-144.14;100.00
7075;BME280;3578;51.568;6.932;2023-10-09T08:16:26;52771.13;;;-144.14;100.00
7075;BME280;3578;51.568;6.932;2023-10-09T08:19:02;52773.13;;;-144.14;100.00
7075;BME280;3578;51.568;6.932;2023-10-09T08:21:47;52797.19;;;-144.14;100.00
7075;BME280;3578;51.568;6.932;2023-10-09T08:24:42;52793.16;;;-144.14;100.00
7075;BME280;3578;51.568;6.932;2023-10-09T08:27:18;52761.09;;;-144.14;100.00
7075;BME280;3578;51.568;6.932;2023-10-09T08:30:05;52765.13;;;-144.14;100.00
7075;BME280;3578;51.568;6.932;2023-10-09T08:32:54;52745.06;;;-144.14;100.00
7075;BME280;3578;51.568;6.932;2023-10-09T08:35:26;52769.13;;;-144.14;100.00
7075;BME280;3578;51.568;6.932;2023-10-09T08:37:58;52767.13;;;-144.14;100.00
7075;BME280;3578;51.568;6.932;2023-10-09T08:40:32;52727.03;;;-144.14;100.00
7075;BME280;3578;51.568;6.932;2023-10-09T08:43:09;52767.13;;;-144.14;100.00
7075;BME280;3578;51.568;6.932;2023-10-09T08:45:38;52753.09;;;-144.14;100.00
7075;BME280;3578;51.568;6.932;2023-10-09T08:48:07;52787.16;;;-144.14;100.00
7075;BME280;3578;51.568;6.932;2023-10-09T08:50:36;52781.16;;;-144.14;100.00
7075;BME280;3578;51.568;6.932;2023-10-09T08:53:04;52803.19;;;-144.14;100.00
7075;BME280;3578;51.568;6.932;2023-10-09T08:55:31;52755.09;;;-144.14;100.00
7075;BME280;3578;51.568;6.932;2023-10-09T08:57:58;52823.22;;;-144.14;100.00
7075;BME280;3578;51.568;6.932;2023-10-09T09:00:27;52817.22;;;-144.14;100.00
7075;BME280;3578;51.568;6.932;2023-10-09T09:02:59;52823.22;;;-144.14;100.00
7075;BME280;3578;51.568;6.932;2023-10-09T09:05:27;52801.19;;;-144.14;100.00
7075;BME280;3578;51.568;6.932;2023-10-09T09:07:55;52825.22;;;-144.14;100.00
7075;BME280;3578;51.568;6.932;2023-10-09T09:10:29;52813.22;;;-144.14;100.00
7075;BME280;3578;51.568;6.932;2023-10-09T09:13:02;52821.22;;;-144.14;100.00
7075;BME280;3578;51.568;6.932;2023-10-09T09:15:30;52801.19;;;-144.14;100.00
7075;BME280;3578;51.568;6.932;2023-10-09T09:18:04;52837.25;;;-144.14;100.00
7075;BME280;3578;51.568;6.932;2023-10-09T09:20:35;52819.22;;;-144.14;100.00
7075;BME280;3578;51.568;6.932;2023-10-09T09:23:10;52881.34;;;-144.14;100.00
7075;BME280;3578;51.568;6.932;2023-10-09T09:25:45;52873.31;;;-144.14;100.00
7075;BME280;3578;51.568;6.932;2023-10-09T09:28:14;52857.28;;;-144.14;100.00
7075;BME280;3578;51.568;6.932;2023-10-09T09:30:45;52909.41;;;-144.14;100.00
7075;BME280;3578;51.568;6.932;2023-10-09T09:33:21;52933.44;;;-144.14;100.00
7075;BME280;3578;51.568;6.932;2023-10-09T09:36:03;52899.38;;;-144.14;100.00
7075;BME280;3578;51.568;6.932;2023-10-09T09:38:32;52903.38;;;-144.14;100.00
7075;BME280;3578;51.568;6.932;2023-10-09T09:41:09;52883.34;;;-144.14;100.00
7075;BME280;3578;51.568;6.932;2023-10-09T09:43:38;52889.34;;;-144.14;100.00
7075;BME280;3578;51.568;6.932;2023-10-09T09:46:07;52895.38;;;-144.14;100.00
7075;BME280;3578;51.568;6.932;2023-10-09T09:48:40;52875.31;;;-144.14;100.00
7075;BME280;3578;51.568;6.932;2023-10-09T09:51:12;52913.41;;;-144.14;100.00
7075;BME280;3578;51.568;6.932;2023-10-09T09:53:40;52865.31;;;-144.14;100.00
7075;BME280;3578;51.568;6.932;2023-10-09T09:56:09;52895.38;;;-144.14;100.00
7075;BME280;3578;51.568;6.932;2023-10-09T09:58:44;52909.41;;;-144.14;100.00
7075;BME280;3578;51.568;6.932;2023-10-09T10:01:13;52935.44;;;-144.14;100.00
7075;BME280;3578;51.568;6.932;2023-10-09T10:03:54;52921.41;;;-144.14;100.00
7075;BME280;3578;51.568;6.932;2023-10-09T10:06:24;52997.56;;;-144.14;100.00
7075;BME280;3578;51.568;6.932;2023-10-09T10:08:52;52957.50;;;-144.14;100.00
7075;BME280;3578;51.568;6.932;2023-10-09T10:11:43;52941.44;;;-144.14;100.00
7075;BME280;3578;51.568;6.932;2023-10-09T10:14:17;52941.44;;;-144.14;100.00
7075;BME280;3578;51.568;6.932;2023-10-09T10:17:04;52907.38;;;-144.14;100.00
7075;BME280;3578;51.568;6.932;2023-10-09T10:20:02;52963.50;;;-144.14;100.00
7075;BME280;3578;51.568;6.932;2023-10-09T10:22:51;52951.47;;;-144.14;100.00
7075;BME280;3578;51.568;6.932;2023-10-09T10:25:33;52963.50;;;-144.14;100.00
7075;BME280;3578;51.568;6.932;2023-10-09T10:28:20;52939.44;;;-144.14;100.00
7075;BME280;3578;51.568;6.932;2023-10-09T10:31:01;52969.50;;;-144.14;100.00
7075;BME280;3578;51.568;6.932;2023-10-09T10:34:05;52957.50;;;-144.14;100.00
7075;BME280;3578;51.568;6.932;2023-10-09T10:36:36;52989.56;;;-144.14;100.00
7075;BME280;3578;51.568;6.932;2023-10-09T10:39:08;53001.56;;;-144.14;100.00
7075;BME280;3578;51.568;6.932;2023-10-09T10:41:37;52973.53;;;-144.14;100.00
7075;BME280;3578;51.568;6.932;2023-10-09T10:44:25;53009.59;;;-144.14;100.00
7075;BME280;3578;51.568;6.932;2023-10-09T10:47:04;53017.59;;;-144.14;100.00
7075;BME280;3578;51.568;6.932;2023-10-09T10:49:43;53061.69;;;-144.14;100.00
7075;BME280;3578;51.568;6.932;2023-10-09T10:52:21;53047.66;;;-144.14;100.00
7075;BME280;3578;51.568;6.932;2023-10-09T10:54:48;53045.66;;;-144.14;100.00
7075;BME280;3578;51.568;6.932;2023-10-09T10:57:36;53023.63;;;-144.14;100.00
7075;BME280;3578;51.568;6.932;2023-10-09T11:00:21;53017.59;;;-144.14;100.00
7075;BME280;3578;51.568;6.932;2023-10-09T11:03:06;53003.56;;;-144.14;100.00
7075;BME280;3578;51.568;6.932;2023-10-09T11:05:43;53039.66;;;-144.14;100.00
7075;BME280;3578;51.568;6.932;2023-10-09T11:08:17;53023.63;;;-144.14;100.00
7075;BME280;3578;51.568;6.932;2023-10-09T11:10:50;53003.56;;;-144.14;100.00
7075;BME280;3578;51.568;6.932;2023-10-09T11:13:23;53007.59;;;-144.14;100.00
7075;BME280;3578;51.568;6.932;2023-10-09T11:16:04;52953.47;;;-144.14;100.00
7075;BME280;3578;51.568;6.932;2023-10-09T11:18:54;52985.53;;;-144.14;100.00
7075;BME280;3578;51.568;6.932;2023-10-09T11:21:23;52979.53;;;-144.14;100.00
7075;BME280;3578;51.568;6.932;2023-10-09T11:24:08;52985.53;;;-144.14;100.00
7075;BME280;3578;51.568;6.932;2023-10-09T11:26:52;52999.56;;;-144.14;100.00
7075;BME280;3578;51.568;6.932;2023-10-09T11:29:23;52999.56;;;-144.14;100.00
7075;BME280;3578;51.568;6.932;2023-10-09T11:32:03;52951.47;;;-144.14;100.00
7075;BME280;3578;51.568;6.932;2023-10-09T11:34:31;53035.63;;;-144.14;100.00
7075;BME280;3578;51.568;6.932;2023-10-09T11:36:59;53017.59;;;-144.14;100.00
7075;BME280;3578;51.568;6.932;2023-10-09T11:39:30;53021.63;;;-144.14;100.00
7075;BME280;3578;51.568;6.932;2023-10-09T11:42:19;53069.72;;;-144.14;100.00
7075;BME280;3578;51.568;6.932;2023-10-09T11:45:02;53099.78;;;-144.14;100.00
7075;BME280;3578;51.568;6.932;2023-10-09T11:47:46;53057.69;;;-144.14;100.00
7075;BME280;3578;51.568;6.932;2023-10-09T11:50:39;53109.78;;;-144.14;100.00
7075;BME280;3578;51.568;6.932;2023-10-09T11:53:09;53109.78;;;-144.14;100.00
7075;BME280;3578;51.568;6.932;2023-10-09T11:55:44;53123.81;;;-144.14;100.00
7075;BME280;3578;51.568;6.932;2023-10-09T11:58:15;53073.72;;;-144.14;100.00
7075;BME280;3578;51.568;6.932;2023-10-09T12:00:50;53085.75;;;-144.14;100.00
7075;BME280;3578;51.568;6.932;2023-10-09T12:03:25;53105.78;;;-144.14;100.00
7075;BME280;3578;51.568;6.932;2023-10-09T12:05:55;53081.72;;;-144.14;100.00
7075;BME280;3578;51.568;6.932;2023-10-09T12:08:24;53079.72;;;-144.14;100.00
7075;BME280;3578;51.568;6.932;2023-10-09T12:10:54;53103.78;;;-144.14;100.00
7075;BME280;3578;51.568;6.932;2023-10-09T12:13:24;53115.81;;;-144.14;100.00
7075;BME280;3578;51.568;6.932;2023-10-09T12:15:52;53097.75;;;-144.14;100.00
7075;BME280;3578;51.568;6.932;2023-10-09T12:18:21;53141.84;;;-144.14;100.00
7075;BME280;3578;51.568;6.932;2023-10-09T12:20:51;53113.78;;;-144.14;100.00
7075;BME280;3578;51.568;6.932;2023-10-09T12:23:20;53117.81;;;-144.14;100.00
7075;BME280;3578;51.568;6.932;2023-10-09T12:25:49;53151.88;;;-144.14;100.00
7075;BME280;3578;51.568;6.932;2023-10-09T12:28:16;53145.84;;;-144.14;100.00
7075;BME280;3578;51.568;6.932;2023-10-09T12:30:46;53123.81;;;-144.14;100.00
7075;BME280;3578;51.568;6.932;2023-10-09T12:33:17;53113.78;;;-144.14;100.00
7075;BME280;3578;51.568;6.932;2023-10-09T12:35:45;53121.81;;;-144.14;100.00
7075;BME280;3578;51.568;6.932;2023-10-09T12:38:14;53129.81;;;-144.14;100.00
7075;BME280;3578;51.568;6.932;2023-10-09T12:40:45;53079.72;;;-144.14;100.00
7075;BME280;3578;51.568;6.932;2023-10-09T12:43:17;53109.78;;;-144.14;100.00
7075;BME280;3578;51.568;6.932;2023-10-09T12:45:45;53135.84;;;-144.14;100.00
7075;BME280;3578;51.568;6.932;2023-10-09T12:48:12;53125.81;;;-144.14;100.00
7075;BME280;3578;51.568;6.932;2023-10-09T12:50:40;53117.81;;;-144.14;100.00
7075;BME280;3578;51.568;6.932;2023-10-09T12:53:10;53155.88;;;-144.14;100.00
7075;BME280;3578;51.568;6.932;2023-10-09T12:55:44;53141.84;;;-144.14;100.00
7075;BME280;3578;51.568;6.932;2023-10-09T12:58:12;53131.84;;;-144.14;100.00
7075;BME280;3578;51.568;6.932;2023-10-09T13:00:42;53155.88;;;-144.14;100.00
7075;BME280;3578;51.568;6.932;2023-10-09T13:03:15;53129.81;;;-144.14;100.00
7075;BME280;3578;51.568;6.932;2023-10-09T13:05:49;53201.97;;;-144.14;100.00
7075;BME280;3578;51.568;6.932;2023-10-09T13:08:21;53189.94;;;-144.14;100.00
7075;BME280;3578;51.568;6.932;2023-10-09T13:10:51;53143.84;;;-144.14;100.00
7075;BME280;3578;51.568;6.932;2023-10-09T13:13:26;53145.84;;;-144.14;100.00
7075;BME280;3578;51.568;6.932;2023-10-09T13:16:12;53145.84;;;-144.14;100.00
7075;BME280;3578;51.568;6.932;2023-10-09T13:18:46;53163.91;;;-144.14;100.00
7075;BME280;3578;51.568;6.932;2023-10-09T13:21:17;53169.91;;;-144.14;100.00
7075;BME280;3578;51.568;6.932;2023-10-09T13:23:44;53193.97;;;-144.14;100.00
7075;BME280;3578;51.568;6.932;2023-10-09T13:26:15;53193.97;;;-144.14;100.00
7075;BME280;3578;51.568;6.932;2023-10-09T13:28:46;53201.97;;;-144.14;100.00
7075;BME280;3578;51.568;6.932;2023-10-09T13:31:14;53218.00;;;-144.14;100.00